sensor_id;sensor_type;location;lat;lon;timestamp;P1;durP1;ratioP1;P2;durP2;ratioP2
63555;SDS011;49700;48.072;7.800;2023-08-24T00:01:58;6.90;;;6.20;;
63555;SDS011;49700;48.072;7.800;2023-08-24T00:04:24;7.20;;;6.50;;
63555;SDS011;49700;48.072;7.800;2023-08-24T00:06:49;7.97;;;7.17;;
63555;SDS011;49700;48.072;7.800;2023-08-24T00:09:14;6.30;;;5.80;;
63555;SDS011;49700;48.072;7.800;2023-08-24T00:11:40;6.37;;;5.87;;
63555;SDS011;49700;48.072;7.800;2023-08-24T00:14:06;8.93;;;5.90;;
63555;SDS011;49700;48.072;7.800;2023-08-24T00:16:31;6.30;;;5.70;;
63555;SDS011;49700;48.072;7.800;2023-08-24T00:18:57;5.90;;;5.37;;
63555;SDS011;49700;48.072;7.800;2023-08-24T00:21:23;7.67;;;6.87;;
63555;SDS011;49700;48.072;7.800;2023-08-24T00:23:51;6.63;;;6.00;;
63555;SDS011;49700;48.072;7.800;2023-08-24T00:26:17;7.67;;;5.60;;
63555;SDS011;49700;48.072;7.800;2023-08-24T00:28:43;6.80;;;6.20;;
63555;SDS011;49700;48.072;7.800;2023-08-24T00:31:09;6.70;;;6.20;;
63555;SDS011;49700;48.072;7.800;2023-08-24T00:33:34;6.60;;;5.87;;
63555;SDS011;49700;48.072;7.800;2023-08-24T00:36:00;8.40;;;6.18;;
63555;SDS011;49700;48.072;7.800;2023-08-24T00:38:27;6.97;;;6.13;;
63555;SDS011;49700;48.072;7.800;2023-08-24T00:40:52;6.80;;;6.30;;
63555;SDS011;49700;48.072;7.800;2023-08-24T00:43:19;6.73;;;6.03;;
63555;SDS011;49700;48.072;7.800;2023-08-24T00:45:49;6.40;;;5.87;;
63555;SDS011;49700;48.072;7.800;2023-08-24T00:48:16;7.33;;;6.63;;
63555;SDS011;49700;48.072;7.800;2023-08-24T00:50:43;8.30;;;6.70;;
63555;SDS011;49700;48.072;7.800;2023-08-24T00:53:09;6.53;;;6.03;;
63555;SDS011;49700;48.072;7.800;2023-08-24T00:55:35;7.60;;;6.90;;
63555;SDS011;49700;48.072;7.800;2023-08-24T00:58:00;7.00;;;6.30;;
63555;SDS011;49700;48.072;7.800;2023-08-24T01:00:28;7.20;;;6.60;;
63555;SDS011;49700;48.072;7.800;2023-08-24T01:02:53;7.27;;;6.67;;
63555;SDS011;49700;48.072;7.800;2023-08-24T01:05:19;6.90;;;6.30;;
63555;SDS011;49700;48.072;7.800;2023-08-24T01:07:44;8.50;;;7.77;;
63555;SDS011;49700;48.072;7.800;2023-08-24T01:10:10;7.03;;;6.30;;
63555;SDS011;49700;48.072;7.800;2023-08-24T01:15:13;6.23;;;5.40;;
63555;SDS011;49700;48.072;7.800;2023-08-24T01:17:42;7.23;;;6.53;;
63555;SDS011;49700;48.072;7.800;2023-08-24T01:20:09;6.67;;;6.00;;
63555;SDS011;49700;48.072;7.800;2023-08-24T01:25:36;7.03;;;6.43;;
63555;SDS011;49700;48.072;7.800;2023-08-24T01:28:05;7.80;;;7.10;;
63555;SDS011;49700;48.072;7.800;2023-08-24T01:30:33;8.37;;;7.67;;
63555;SDS011;49700;48.072;7.800;2023-08-24T01:33:02;6.47;;;5.67;;
63555;SDS011;49700;48.072;7.800;2023-08-24T01:35:28;7.47;;;6.70;;
63555;SDS011;49700;48.072;7.800;2023-08-24T01:37:53;8.67;;;7.03;;
63555;SDS011;49700;48.072;7.800;2023-08-24T01:40:40;7.73;;;6.87;;
63555;SDS011;49700;48.072;7.800;2023-08-24T01:43:14;5.90;;;5.40;;
63555;SDS011;49700;48.072;7.800;2023-08-24T01:45:41;7.10;;;6.40;;
63555;SDS011;49700;48.072;7.800;2023-08-24T01:48:08;8.80;;;7.30;;
63555;SDS011;49700;48.072;7.800;2023-08-24T01:50:34;8.37;;;6.33;;
63555;SDS011;49700;48.072;7.800;2023-08-24T01:53:00;9.13;;;6.93;;
63555;SDS011;49700;48.072;7.800;2023-08-24T01:55:27;8.20;;;7.40;;
63555;SDS011;49700;48.072;7.800;2023-08-24T01:57:52;9.40;;;6.57;;
63555;SDS011;49700;48.072;7.800;2023-08-24T02:00:20;7.90;;;7.20;;
63555;SDS011;49700;48.072;7.800;2023-08-24T02:02:45;6.70;;;6.17;;
63555;SDS011;49700;48.072;7.800;2023-08-24T02:05:11;6.70;;;6.20;;
63555;SDS011;49700;48.072;7.800;2023-08-24T02:07:38;6.87;;;6.27;;
63555;SDS011;49700;48.072;7.800;2023-08-24T02:10:05;7.47;;;6.80;;
63555;SDS011;49700;48.072;7.800;2023-08-24T02:12:30;6.47;;;5.90;;
63555;SDS011;49700;48.072;7.800;2023-08-24T02:14:56;6.90;;;6.30;;
63555;SDS011;49700;48.072;7.800;2023-08-24T02:17:21;7.50;;;6.80;;
63555;SDS011;49700;48.072;7.800;2023-08-24T02:19:47;6.60;;;6.10;;
63555;SDS011;49700;48.072;7.800;2023-08-24T02:22:13;12.50;;;6.10;;
63555;SDS011;49700;48.072;7.800;2023-08-24T02:24:38;6.87;;;6.37;;
63555;SDS011;49700;48.072;7.800;2023-08-24T02:27:04;6.23;;;5.50;;
63555;SDS011;49700;48.072;7.800;2023-08-24T02:29:30;6.50;;;5.70;;
63555;SDS011;49700;48.072;7.800;2023-08-24T02:31:55;7.77;;;7.00;;
63555;SDS011;49700;48.072;7.800;2023-08-24T02:34:20;5.93;;;5.43;;
63555;SDS011;49700;48.072;7.800;2023-08-24T02:36:46;6.43;;;5.93;;
63555;SDS011;49700;48.072;7.800;2023-08-24T02:39:11;6.97;;;6.30;;
63555;SDS011;49700;48.072;7.800;2023-08-24T02:41:37;7.07;;;6.47;;
63555;SDS011;49700;48.072;7.800;2023-08-24T02:44:02;8.83;;;6.53;;
63555;SDS011;49700;48.072;7.800;2023-08-24T02:46:28;9.03;;;5.90;;
63555;SDS011;49700;48.072;7.800;2023-08-24T02:48:54;7.20;;;6.37;;
63555;SDS011;49700;48.072;7.800;2023-08-24T02:51:21;8.07;;;6.40;;
63555;SDS011;49700;48.072;7.800;2023-08-24T02:53:47;6.87;;;6.27;;
63555;SDS011;49700;48.072;7.800;2023-08-24T02:56:12;6.53;;;5.83;;
63555;SDS011;49700;48.072;7.800;2023-08-24T02:58:38;8.73;;;7.93;;
63555;SDS011;49700;48.072;7.800;2023-08-24T03:01:07;6.57;;;5.97;;
63555;SDS011;49700;48.072;7.800;2023-08-24T03:03:33;9.70;;;6.67;;
63555;SDS011;49700;48.072;7.800;2023-08-24T03:06:02;7.40;;;5.90;;
63555;SDS011;49700;48.072;7.800;2023-08-24T03:08:33;6.67;;;5.43;;
63555;SDS011;49700;48.072;7.800;2023-08-24T03:11:00;5.57;;;5.17;;
63555;SDS011;49700;48.072;7.800;2023-08-24T03:13:27;6.20;;;5.60;;
63555;SDS011;49700;48.072;7.800;2023-08-24T03:15:53;6.93;;;5.80;;
63555;SDS011;49700;48.072;7.800;2023-08-24T03:18:19;5.90;;;5.30;;
63555;SDS011;49700;48.072;7.800;2023-08-24T03:20:45;6.33;;;5.80;;
63555;SDS011;49700;48.072;7.800;2023-08-24T03:23:13;6.80;;;6.27;;
63555;SDS011;49700;48.072;7.800;2023-08-24T03:25:40;7.13;;;6.40;;
63555;SDS011;49700;48.072;7.800;2023-08-24T03:28:07;6.80;;;6.00;;
63555;SDS011;49700;48.072;7.800;2023-08-24T03:30:35;5.90;;;5.40;;
63555;SDS011;49700;48.072;7.800;2023-08-24T03:33:01;17.63;;;6.80;;
63555;SDS011;49700;48.072;7.800;2023-08-24T03:35:28;7.50;;;6.40;;
63555;SDS011;49700;48.072;7.800;2023-08-24T03:37:55;9.20;;;6.50;;
63555;SDS011;49700;48.072;7.800;2023-08-24T03:40:22;13.33;;;7.93;;
63555;SDS011;49700;48.072;7.800;2023-08-24T03:42:48;8.80;;;6.53;;
63555;SDS011;49700;48.072;7.800;2023-08-24T03:45:13;7.53;;;6.83;;
63555;SDS011;49700;48.072;7.800;2023-08-24T03:47:39;6.50;;;5.90;;
63555;SDS011;49700;48.072;7.800;2023-08-24T03:50:05;8.63;;;6.90;;
63555;SDS011;49700;48.072;7.800;2023-08-24T03:52:30;6.77;;;6.17;;
63555;SDS011;49700;48.072;7.800;2023-08-24T03:54:57;9.07;;;6.40;;
63555;SDS011;49700;48.072;7.800;2023-08-24T03:57:22;7.20;;;6.60;;
63555;SDS011;49700;48.072;7.800;2023-08-24T03:59:48;6.77;;;6.10;;
63555;SDS011;49700;48.072;7.800;2023-08-24T04:02:15;8.90;;;7.97;;
63555;SDS011;49700;48.072;7.800;2023-08-24T04:04:40;7.00;;;6.30;;
63555;SDS011;49700;48.072;7.800;2023-08-24T04:07:06;7.30;;;6.70;;
63555;SDS011;49700;48.072;7.800;2023-08-24T04:09:31;10.23;;;6.43;;
63555;SDS011;49700;48.072;7.800;2023-08-24T04:11:57;9.00;;;6.20;;
63555;SDS011;49700;48.072;7.800;2023-08-24T04:14:22;7.43;;;6.80;;
63555;SDS011;49700;48.072;7.800;2023-08-24T04:16:48;18.97;;;9.77;;
63555;SDS011;49700;48.072;7.800;2023-08-24T04:19:13;11.87;;;6.53;;
63555;SDS011;49700;48.072;7.800;2023-08-24T04:21:38;8.37;;;6.33;;
63555;SDS011;49700;48.072;7.800;2023-08-24T04:24:04;11.20;;;6.57;;
63555;SDS011;49700;48.072;7.800;2023-08-24T04:26:30;7.47;;;6.20;;
63555;SDS011;49700;48.072;7.800;2023-08-24T04:28:56;16.50;;;8.20;;
63555;SDS011;49700;48.072;7.800;2023-08-24T04:31:21;8.83;;;7.10;;
63555;SDS011;49700;48.072;7.800;2023-08-24T04:33:47;8.80;;;7.00;;
63555;SDS011;49700;48.072;7.800;2023-08-24T04:36:12;7.60;;;6.60;;
63555;SDS011;49700;48.072;7.800;2023-08-24T04:38:37;8.03;;;7.13;;
63555;SDS011;49700;48.072;7.800;2023-08-24T04:41:03;10.63;;;7.50;;
63555;SDS011;49700;48.072;7.800;2023-08-24T04:43:32;7.30;;;6.60;;
63555;SDS011;49700;48.072;7.800;2023-08-24T04:45:58;9.83;;;6.93;;
63555;SDS011;49700;48.072;7.800;2023-08-24T04:48:24;8.70;;;6.70;;
63555;SDS011;49700;48.072;7.800;2023-08-24T04:50:51;8.53;;;7.73;;
63555;SDS011;49700;48.072;7.800;2023-08-24T04:53:18;7.60;;;6.80;;
63555;SDS011;49700;48.072;7.800;2023-08-24T04:55:45;9.30;;;7.43;;
63555;SDS011;49700;48.072;7.800;2023-08-24T04:58:11;9.47;;;7.33;;
63555;SDS011;49700;48.072;7.800;2023-08-24T05:00:38;7.80;;;7.10;;
63555;SDS011;49700;48.072;7.800;2023-08-24T05:03:04;8.87;;;8.07;;
63555;SDS011;49700;48.072;7.800;2023-08-24T05:05:31;7.72;;;7.03;;
63555;SDS011;49700;48.072;7.800;2023-08-24T05:07:58;9.43;;;8.47;;
63555;SDS011;49700;48.072;7.800;2023-08-24T05:10:24;9.00;;;6.97;;
63555;SDS011;49700;48.072;7.800;2023-08-24T05:12:50;8.63;;;7.73;;
63555;SDS011;49700;48.072;7.800;2023-08-24T05:15:16;8.53;;;7.57;;
63555;SDS011;49700;48.072;7.800;2023-08-24T05:17:41;7.40;;;6.70;;
63555;SDS011;49700;48.072;7.800;2023-08-24T05:20:07;8.70;;;7.90;;
63555;SDS011;49700;48.072;7.800;2023-08-24T05:22:35;8.80;;;7.83;;
63555;SDS011;49700;48.072;7.800;2023-08-24T05:25:01;9.47;;;8.40;;
63555;SDS011;49700;48.072;7.800;2023-08-24T05:27:26;8.20;;;7.40;;
63555;SDS011;49700;48.072;7.800;2023-08-24T05:29:52;8.23;;;7.43;;
63555;SDS011;49700;48.072;7.800;2023-08-24T05:32:17;8.47;;;7.67;;
63555;SDS011;49700;48.072;7.800;2023-08-24T05:34:44;7.77;;;6.73;;
63555;SDS011;49700;48.072;7.800;2023-08-24T05:37:10;7.07;;;6.37;;
63555;SDS011;49700;48.072;7.800;2023-08-24T05:39:36;8.77;;;7.77;;
63555;SDS011;49700;48.072;7.800;2023-08-24T05:42:01;8.70;;;7.80;;
63555;SDS011;49700;48.072;7.800;2023-08-24T05:44:27;8.87;;;8.13;;
63555;SDS011;49700;48.072;7.800;2023-08-24T05:46:52;7.90;;;7.03;;
63555;SDS011;49700;48.072;7.800;2023-08-24T05:49:17;9.20;;;7.10;;
63555;SDS011;49700;48.072;7.800;2023-08-24T05:51:43;8.50;;;7.57;;
63555;SDS011;49700;48.072;7.800;2023-08-24T05:54:09;10.00;;;7.80;;
63555;SDS011;49700;48.072;7.800;2023-08-24T05:56:34;7.00;;;6.30;;
63555;SDS011;49700;48.072;7.800;2023-08-24T05:59:00;8.80;;;8.00;;
63555;SDS011;49700;48.072;7.800;2023-08-24T06:01:25;7.53;;;6.30;;
63555;SDS011;49700;48.072;7.800;2023-08-24T06:03:54;9.47;;;8.00;;
63555;SDS011;49700;48.072;7.800;2023-08-24T06:06:19;9.07;;;8.27;;
63555;SDS011;49700;48.072;7.800;2023-08-24T06:08:45;8.70;;;7.83;;
63555;SDS011;49700;48.072;7.800;2023-08-24T06:11:10;8.73;;;8.03;;
63555;SDS011;49700;48.072;7.800;2023-08-24T06:13:35;12.93;;;7.83;;
63555;SDS011;49700;48.072;7.800;2023-08-24T06:16:01;9.00;;;7.90;;
63555;SDS011;49700;48.072;7.800;2023-08-24T06:18:27;10.40;;;9.30;;
63555;SDS011;49700;48.072;7.800;2023-08-24T06:20:53;8.57;;;7.73;;
63555;SDS011;49700;48.072;7.800;2023-08-24T06:23:19;7.80;;;7.20;;
63555;SDS011;49700;48.072;7.800;2023-08-24T06:25:44;9.27;;;8.40;;
63555;SDS011;49700;48.072;7.800;2023-08-24T06:28:13;8.30;;;7.50;;
63555;SDS011;49700;48.072;7.800;2023-08-24T06:30:39;8.53;;;7.73;;
63555;SDS011;49700;48.072;7.800;2023-08-24T06:33:06;10.20;;;9.30;;
63555;SDS011;49700;48.072;7.800;2023-08-24T06:35:32;9.03;;;8.23;;
63555;SDS011;49700;48.072;7.800;2023-08-24T06:37:58;9.93;;;7.77;;
63555;SDS011;49700;48.072;7.800;2023-08-24T06:40:24;9.93;;;9.03;;
63555;SDS011;49700;48.072;7.800;2023-08-24T06:42:49;16.10;;;8.17;;
63555;SDS011;49700;48.072;7.800;2023-08-24T06:45:15;8.90;;;8.10;;
63555;SDS011;49700;48.072;7.800;2023-08-24T06:47:42;8.33;;;7.53;;
63555;SDS011;49700;48.072;7.800;2023-08-24T06:50:07;9.50;;;8.50;;
63555;SDS011;49700;48.072;7.800;2023-08-24T06:52:33;9.37;;;8.37;;
63555;SDS011;49700;48.072;7.800;2023-08-24T06:54:59;10.00;;;9.03;;
63555;SDS011;49700;48.072;7.800;2023-08-24T06:57:24;10.50;;;9.50;;
63555;SDS011;49700;48.072;7.800;2023-08-24T06:59:50;10.53;;;9.63;;
63555;SDS011;49700;48.072;7.800;2023-08-24T07:02:16;10.60;;;9.50;;
63555;SDS011;49700;48.072;7.800;2023-08-24T07:04:43;14.07;;;9.50;;
63555;SDS011;49700;48.072;7.800;2023-08-24T07:07:08;11.33;;;10.23;;
63555;SDS011;49700;48.072;7.800;2023-08-24T07:09:34;11.50;;;9.63;;
63555;SDS011;49700;48.072;7.800;2023-08-24T07:12:01;11.90;;;10.80;;
63555;SDS011;49700;48.072;7.800;2023-08-24T07:14:32;12.13;;;10.93;;
63555;SDS011;49700;48.072;7.800;2023-08-24T07:16:58;10.77;;;9.70;;
63555;SDS011;49700;48.072;7.800;2023-08-24T07:19:23;10.23;;;9.43;;
63555;SDS011;49700;48.072;7.800;2023-08-24T07:21:49;11.60;;;9.87;;
63555;SDS011;49700;48.072;7.800;2023-08-24T07:24:15;11.43;;;10.13;;
63555;SDS011;49700;48.072;7.800;2023-08-24T07:26:41;9.90;;;9.00;;
63555;SDS011;49700;48.072;7.800;2023-08-24T07:29:07;14.30;;;8.80;;
63555;SDS011;49700;48.072;7.800;2023-08-24T07:31:33;11.23;;;10.23;;
63555;SDS011;49700;48.072;7.800;2023-08-24T07:33:58;8.80;;;8.10;;
63555;SDS011;49700;48.072;7.800;2023-08-24T07:36:24;10.73;;;9.63;;
63555;SDS011;49700;48.072;7.800;2023-08-24T07:38:50;9.97;;;9.10;;
63555;SDS011;49700;48.072;7.800;2023-08-24T07:41:15;9.40;;;8.50;;
63555;SDS011;49700;48.072;7.800;2023-08-24T07:43:43;8.30;;;7.50;;
63555;SDS011;49700;48.072;7.800;2023-08-24T07:46:09;12.20;;;8.90;;
63555;SDS011;49700;48.072;7.800;2023-08-24T07:48:34;8.40;;;7.70;;
63555;SDS011;49700;48.072;7.800;2023-08-24T07:51:00;9.00;;;8.10;;
63555;SDS011;49700;48.072;7.800;2023-08-24T07:53:25;9.03;;;8.27;;
63555;SDS011;49700;48.072;7.800;2023-08-24T07:55:52;16.13;;;7.90;;
63555;SDS011;49700;48.072;7.800;2023-08-24T07:58:18;9.43;;;8.23;;
63555;SDS011;49700;48.072;7.800;2023-08-24T08:00:45;8.23;;;7.47;;
63555;SDS011;49700;48.072;7.800;2023-08-24T08:03:11;7.60;;;7.07;;
63555;SDS011;49700;48.072;7.800;2023-08-24T08:05:36;9.53;;;8.73;;
63555;SDS011;49700;48.072;7.800;2023-08-24T08:08:02;8.27;;;7.57;;
63555;SDS011;49700;48.072;7.800;2023-08-24T08:10:27;8.50;;;7.23;;
63555;SDS011;49700;48.072;7.800;2023-08-24T08:12:53;8.40;;;7.60;;
63555;SDS011;49700;48.072;7.800;2023-08-24T08:15:18;7.03;;;6.53;;
63555;SDS011;49700;48.072;7.800;2023-08-24T08:17:44;8.43;;;7.63;;
63555;SDS011;49700;48.072;7.800;2023-08-24T08:20:09;9.77;;;8.87;;
63555;SDS011;49700;48.072;7.800;2023-08-24T08:22:37;8.73;;;7.83;;
63555;SDS011;49700;48.072;7.800;2023-08-24T08:25:04;8.23;;;7.40;;
63555;SDS011;49700;48.072;7.800;2023-08-24T08:27:30;8.93;;;8.20;;
63555;SDS011;49700;48.072;7.800;2023-08-24T08:29:56;7.97;;;7.27;;
63555;SDS011;49700;48.072;7.800;2023-08-24T08:32:21;9.33;;;7.90;;
63555;SDS011;49700;48.072;7.800;2023-08-24T08:34:47;8.30;;;7.50;;
63555;SDS011;49700;48.072;7.800;2023-08-24T08:37:12;9.33;;;8.53;;
63555;SDS011;49700;48.072;7.800;2023-08-24T08:39:37;10.70;;;9.27;;
63555;SDS011;49700;48.072;7.800;2023-08-24T08:42:03;10.63;;;9.83;;
63555;SDS011;49700;48.072;7.800;2023-08-24T08:44:30;7.77;;;6.93;;
63555;SDS011;49700;48.072;7.800;2023-08-24T08:46:56;8.93;;;7.67;;
63555;SDS011;49700;48.072;7.800;2023-08-24T08:49:22;7.63;;;7.03;;
63555;SDS011;49700;48.072;7.800;2023-08-24T08:51:48;7.83;;;7.20;;
63555;SDS011;49700;48.072;7.800;2023-08-24T08:54:14;6.40;;;5.90;;
63555;SDS011;49700;48.072;7.800;2023-08-24T08:56:40;8.10;;;7.40;;
63555;SDS011;49700;48.072;7.800;2023-08-24T08:59:07;7.23;;;6.50;;
63555;SDS011;49700;48.072;7.800;2023-08-24T09:01:34;6.30;;;5.80;;
63555;SDS011;49700;48.072;7.800;2023-08-24T09:03:59;6.83;;;6.33;;
63555;SDS011;49700;48.072;7.800;2023-08-24T09:06:26;7.10;;;6.50;;
63555;SDS011;49700;48.072;7.800;2023-08-24T09:08:51;6.33;;;5.70;;
63555;SDS011;49700;48.072;7.800;2023-08-24T09:11:17;6.27;;;5.70;;
63555;SDS011;49700;48.072;7.800;2023-08-24T09:13:44;7.90;;;6.37;;
63555;SDS011;49700;48.072;7.800;2023-08-24T09:16:10;8.60;;;5.80;;
63555;SDS011;49700;48.072;7.800;2023-08-24T09:18:43;6.73;;;6.20;;
63555;SDS011;49700;48.072;7.800;2023-08-24T09:21:14;7.03;;;6.27;;
63555;SDS011;49700;48.072;7.800;2023-08-24T09:23:45;8.03;;;7.23;;
63555;SDS011;49700;48.072;7.800;2023-08-24T09:26:26;7.63;;;6.93;;
63555;SDS011;49700;48.072;7.800;2023-08-24T09:28:59;7.77;;;7.13;;
63555;SDS011;49700;48.072;7.800;2023-08-24T09:31:35;6.90;;;6.40;;
63555;SDS011;49700;48.072;7.800;2023-08-24T09:34:02;7.43;;;6.80;;
63555;SDS011;49700;48.072;7.800;2023-08-24T09:36:30;6.90;;;6.40;;
63555;SDS011;49700;48.072;7.800;2023-08-24T09:38:58;7.37;;;6.77;;
63555;SDS011;49700;48.072;7.800;2023-08-24T09:41:24;6.73;;;6.10;;
63555;SDS011;49700;48.072;7.800;2023-08-24T09:44:03;6.03;;;5.63;;
63555;SDS011;49700;48.072;7.800;2023-08-24T09:46:29;7.27;;;6.40;;
63555;SDS011;49700;48.072;7.800;2023-08-24T09:48:54;8.00;;;6.07;;
63555;SDS011;49700;48.072;7.800;2023-08-24T09:51:23;8.00;;;6.03;;
63555;SDS011;49700;48.072;7.800;2023-08-24T09:53:51;7.73;;;6.43;;
63555;SDS011;49700;48.072;7.800;2023-08-24T09:56:17;7.57;;;6.87;;
63555;SDS011;49700;48.072;7.800;2023-08-24T09:58:48;8.70;;;6.33;;
63555;SDS011;49700;48.072;7.800;2023-08-24T10:01:16;5.83;;;5.33;;
63555;SDS011;49700;48.072;7.800;2023-08-24T10:03:43;16.60;;;6.30;;
63555;SDS011;49700;48.072;7.800;2023-08-24T10:06:13;9.80;;;6.77;;
63555;SDS011;49700;48.072;7.800;2023-08-24T10:08:43;9.20;;;6.60;;
63555;SDS011;49700;48.072;7.800;2023-08-24T10:11:13;13.70;;;6.10;;
63555;SDS011;49700;48.072;7.800;2023-08-24T10:13:58;7.40;;;5.47;;
63555;SDS011;49700;48.072;7.800;2023-08-24T10:16:32;6.10;;;5.50;;
63555;SDS011;49700;48.072;7.800;2023-08-24T10:18:59;6.17;;;5.67;;
63555;SDS011;49700;48.072;7.800;2023-08-24T10:21:29;6.13;;;5.60;;
63555;SDS011;49700;48.072;7.800;2023-08-24T10:23:57;7.30;;;6.20;;
63555;SDS011;49700;48.072;7.800;2023-08-24T10:26:24;7.57;;;6.50;;
63555;SDS011;49700;48.072;7.800;2023-08-24T10:28:51;6.07;;;5.47;;
63555;SDS011;49700;48.072;7.800;2023-08-24T10:31:17;10.13;;;5.23;;
63555;SDS011;49700;48.072;7.800;2023-08-24T10:33:45;6.20;;;5.53;;
63555;SDS011;49700;48.072;7.800;2023-08-24T10:36:12;6.10;;;5.60;;
63555;SDS011;49700;48.072;7.800;2023-08-24T10:38:42;7.50;;;5.60;;
63555;SDS011;49700;48.072;7.800;2023-08-24T10:41:14;6.73;;;5.37;;
63555;SDS011;49700;48.072;7.800;2023-08-24T10:43:48;8.00;;;6.30;;
63555;SDS011;49700;48.072;7.800;2023-08-24T10:46:14;6.30;;;5.70;;
63555;SDS011;49700;48.072;7.800;2023-08-24T10:51:18;6.23;;;5.00;;
63555;SDS011;49700;48.072;7.800;2023-08-24T10:53:56;5.80;;;5.23;;
63555;SDS011;49700;48.072;7.800;2023-08-24T10:56:30;6.07;;;5.20;;
63555;SDS011;49700;48.072;7.800;2023-08-24T10:59:13;6.83;;;5.00;;
63555;SDS011;49700;48.072;7.800;2023-08-24T11:01:40;5.13;;;4.73;;
63555;SDS011;49700;48.072;7.800;2023-08-24T11:04:26;5.70;;;5.20;;
63555;SDS011;49700;48.072;7.800;2023-08-24T11:06:53;5.50;;;5.10;;
63555;SDS011;49700;48.072;7.800;2023-08-24T11:09:20;5.80;;;5.20;;
63555;SDS011;49700;48.072;7.800;2023-08-24T11:11:55;5.73;;;5.30;;
63555;SDS011;49700;48.072;7.800;2023-08-24T11:14:25;5.60;;;4.90;;
63555;SDS011;49700;48.072;7.800;2023-08-24T11:17:00;5.50;;;4.90;;
63555;SDS011;49700;48.072;7.800;2023-08-24T11:19:54;5.33;;;4.97;;
63555;SDS011;49700;48.072;7.800;2023-08-24T11:22:19;6.47;;;5.00;;
63555;SDS011;49700;48.072;7.800;2023-08-24T11:24:48;6.10;;;5.50;;
63555;SDS011;49700;48.072;7.800;2023-08-24T11:27:13;5.63;;;5.13;;
63555;SDS011;49700;48.072;7.800;2023-08-24T11:29:39;6.53;;;5.23;;
63555;SDS011;49700;48.072;7.800;2023-08-24T11:32:05;5.50;;;5.10;;
63555;SDS011;49700;48.072;7.800;2023-08-24T11:34:31;6.63;;;6.03;;
63555;SDS011;49700;48.072;7.800;2023-08-24T11:36:57;6.03;;;5.53;;
63555;SDS011;49700;48.072;7.800;2023-08-24T11:39:25;5.77;;;5.17;;
63555;SDS011;49700;48.072;7.800;2023-08-24T11:42:17;5.60;;;5.10;;
63555;SDS011;49700;48.072;7.800;2023-08-24T11:44:48;5.43;;;4.93;;
63555;SDS011;49700;48.072;7.800;2023-08-24T11:47:14;5.90;;;5.40;;
63555;SDS011;49700;48.072;7.800;2023-08-24T11:49:40;6.20;;;5.60;;
63555;SDS011;49700;48.072;7.800;2023-08-24T11:52:06;6.40;;;5.10;;
63555;SDS011;49700;48.072;7.800;2023-08-24T11:54:32;5.47;;;5.07;;
63555;SDS011;49700;48.072;7.800;2023-08-24T11:56:58;8.87;;;5.30;;
63555;SDS011;49700;48.072;7.800;2023-08-24T11:59:23;6.27;;;5.67;;
63555;SDS011;49700;48.072;7.800;2023-08-24T12:01:49;6.63;;;6.13;;
63555;SDS011;49700;48.072;7.800;2023-08-24T12:04:17;5.47;;;5.07;;
63555;SDS011;49700;48.072;7.800;2023-08-24T12:06:43;6.30;;;5.20;;
63555;SDS011;49700;48.072;7.800;2023-08-24T12:09:09;6.83;;;5.57;;
63555;SDS011;49700;48.072;7.800;2023-08-24T12:11:35;6.30;;;5.70;;
63555;SDS011;49700;48.072;7.800;2023-08-24T12:14:01;5.60;;;5.07;;
63555;SDS011;49700;48.072;7.800;2023-08-24T12:16:27;6.00;;;5.50;;
63555;SDS011;49700;48.072;7.800;2023-08-24T12:18:58;5.77;;;4.80;;
63555;SDS011;49700;48.072;7.800;2023-08-24T12:21:33;7.57;;;5.30;;
63555;SDS011;49700;48.072;7.800;2023-08-24T12:26:25;6.63;;;5.20;;
63555;SDS011;49700;48.072;7.800;2023-08-24T12:28:52;6.57;;;5.93;;
63555;SDS011;49700;48.072;7.800;2023-08-24T12:31:18;11.40;;;5.77;;
63555;SDS011;49700;48.072;7.800;2023-08-24T12:33:44;5.30;;;4.90;;
63555;SDS011;49700;48.072;7.800;2023-08-24T12:36:10;6.53;;;5.37;;
63555;SDS011;49700;48.072;7.800;2023-08-24T12:38:36;6.13;;;5.43;;
63555;SDS011;49700;48.072;7.800;2023-08-24T12:41:02;8.83;;;5.43;;
63555;SDS011;49700;48.072;7.800;2023-08-24T12:43:27;5.80;;;5.17;;
63555;SDS011;49700;48.072;7.800;2023-08-24T12:45:53;6.20;;;5.60;;
63555;SDS011;49700;48.072;7.800;2023-08-24T12:48:18;6.23;;;5.33;;
63555;SDS011;49700;48.072;7.800;2023-08-24T12:50:44;5.57;;;5.07;;
63555;SDS011;49700;48.072;7.800;2023-08-24T12:53:09;6.23;;;5.50;;
63555;SDS011;49700;48.072;7.800;2023-08-24T12:55:39;5.97;;;5.37;;
63555;SDS011;49700;48.072;7.800;2023-08-24T12:58:05;5.70;;;5.10;;
63555;SDS011;49700;48.072;7.800;2023-08-24T13:00:31;5.63;;;5.17;;
63555;SDS011;49700;48.072;7.800;2023-08-24T13:02:57;5.83;;;5.33;;
63555;SDS011;49700;48.072;7.800;2023-08-24T13:05:22;5.60;;;4.93;;
63555;SDS011;49700;48.072;7.800;2023-08-24T13:07:52;5.80;;;5.30;;
63555;SDS011;49700;48.072;7.800;2023-08-24T13:10:20;6.83;;;6.20;;
63555;SDS011;49700;48.072;7.800;2023-08-24T13:12:46;5.93;;;5.27;;
63555;SDS011;49700;48.072;7.800;2023-08-24T13:15:11;8.17;;;5.33;;
63555;SDS011;49700;48.072;7.800;2023-08-24T13:17:37;6.00;;;5.40;;
63555;SDS011;49700;48.072;7.800;2023-08-24T13:20:02;5.47;;;5.07;;
63555;SDS011;49700;48.072;7.800;2023-08-24T13:22:28;5.20;;;4.50;;
63555;SDS011;49700;48.072;7.800;2023-08-24T13:24:54;6.03;;;5.40;;
63555;SDS011;49700;48.072;7.800;2023-08-24T13:27:19;5.50;;;4.67;;
63555;SDS011;49700;48.072;7.800;2023-08-24T13:29:45;6.60;;;5.80;;
63555;SDS011;49700;48.072;7.800;2023-08-24T13:32:10;6.17;;;5.33;;
63555;SDS011;49700;48.072;7.800;2023-08-24T13:34:35;5.87;;;5.10;;
63555;SDS011;49700;48.072;7.800;2023-08-24T13:37:02;7.40;;;5.50;;
63555;SDS011;49700;48.072;7.800;2023-08-24T13:39:27;5.70;;;5.10;;
63555;SDS011;49700;48.072;7.800;2023-08-24T13:41:53;5.83;;;5.30;;
63555;SDS011;49700;48.072;7.800;2023-08-24T13:44:19;5.53;;;5.07;;
63555;SDS011;49700;48.072;7.800;2023-08-24T13:46:45;7.57;;;5.63;;
63555;SDS011;49700;48.072;7.800;2023-08-24T13:49:10;8.07;;;5.23;;
63555;SDS011;49700;48.072;7.800;2023-08-24T13:51:36;8.10;;;5.60;;
63555;SDS011;49700;48.072;7.800;2023-08-24T13:54:02;6.60;;;4.77;;
63555;SDS011;49700;48.072;7.800;2023-08-24T13:56:28;5.80;;;4.33;;
63555;SDS011;49700;48.072;7.800;2023-08-24T13:58:53;6.10;;;5.47;;
63555;SDS011;49700;48.072;7.800;2023-08-24T14:01:18;9.87;;;6.07;;
63555;SDS011;49700;48.072;7.800;2023-08-24T14:03:44;5.70;;;5.10;;
63555;SDS011;49700;48.072;7.800;2023-08-24T14:06:09;5.57;;;4.80;;
63555;SDS011;49700;48.072;7.800;2023-08-24T14:08:37;8.20;;;6.30;;
63555;SDS011;49700;48.072;7.800;2023-08-24T14:11:03;6.80;;;5.70;;
63555;SDS011;49700;48.072;7.800;2023-08-24T14:13:28;8.53;;;5.10;;
63555;SDS011;49700;48.072;7.800;2023-08-24T14:15:54;5.30;;;4.80;;
63555;SDS011;49700;48.072;7.800;2023-08-24T14:18:21;5.03;;;4.63;;
63555;SDS011;49700;48.072;7.800;2023-08-24T14:20:47;5.60;;;4.63;;
63555;SDS011;49700;48.072;7.800;2023-08-24T14:23:12;6.90;;;4.90;;
63555;SDS011;49700;48.072;7.800;2023-08-24T14:25:38;10.30;;;4.97;;
63555;SDS011;49700;48.072;7.800;2023-08-24T14:28:03;5.13;;;4.73;;
63555;SDS011;49700;48.072;7.800;2023-08-24T14:30:29;6.43;;;4.93;;
63555;SDS011;49700;48.072;7.800;2023-08-24T14:32:54;8.60;;;4.73;;
63555;SDS011;49700;48.072;7.800;2023-08-24T14:35:19;8.80;;;5.40;;
63555;SDS011;49700;48.072;7.800;2023-08-24T14:37:45;7.20;;;4.97;;
63555;SDS011;49700;48.072;7.800;2023-08-24T14:40:10;6.87;;;5.00;;
63555;SDS011;49700;48.072;7.800;2023-08-24T14:42:36;5.93;;;4.30;;
63555;SDS011;49700;48.072;7.800;2023-08-24T14:45:01;4.63;;;3.80;;
63555;SDS011;49700;48.072;7.800;2023-08-24T14:47:27;6.13;;;3.70;;
63555;SDS011;49700;48.072;7.800;2023-08-24T14:49:52;7.40;;;4.70;;
63555;SDS011;49700;48.072;7.800;2023-08-24T14:52:18;5.70;;;4.20;;
63555;SDS011;49700;48.072;7.800;2023-08-24T14:54:43;4.70;;;3.87;;